sensor_id;sensor_type;location;lat;lon;timestamp;temperature;humidity
37788;DHT22;23627;53.302;-6.362;2023-06-22T00:02:16;18.60;99.90
37788;DHT22;23627;53.302;-6.362;2023-06-22T00:04:42;18.50;99.90
37788;DHT22;23627;53.302;-6.362;2023-06-22T00:07:08;18.50;99.90
37788;DHT22;23627;53.302;-6.362;2023-06-22T00:09:34;18.50;99.90
37788;DHT22;23627;53.302;-6.362;2023-06-22T00:12:00;18.50;99.90
37788;DHT22;23627;53.302;-6.362;2023-06-22T00:14:25;18.40;99.90
37788;DHT22;23627;53.302;-6.362;2023-06-22T00:16:51;18.40;99.90
37788;DHT22;23627;53.302;-6.362;2023-06-22T00:19:21;18.40;99.90
37788;DHT22;23627;53.302;-6.362;2023-06-22T00:21:47;18.30;99.90
37788;DHT22;23627;53.302;-6.362;2023-06-22T00:24:18;18.30;99.90
37788;DHT22;23627;53.302;-6.362;2023-06-22T00:26:45;18.30;99.90
37788;DHT22;23627;53.302;-6.362;2023-06-22T00:29:11;18.30;99.90
37788;DHT22;23627;53.302;-6.362;2023-06-22T00:31:36;18.30;99.90
37788;DHT22;23627;53.302;-6.362;2023-06-22T00:34:02;18.20;99.90
37788;DHT22;23627;53.302;-6.362;2023-06-22T00:36:28;18.20;99.90
37788;DHT22;23627;53.302;-6.362;2023-06-22T00:38:54;18.20;99.90
37788;DHT22;23627;53.302;-6.362;2023-06-22T00:41:19;18.20;99.90
37788;DHT22;23627;53.302;-6.362;2023-06-22T00:43:45;18.10;99.90
37788;DHT22;23627;53.302;-6.362;2023-06-22T00:46:11;18.10;99.90
37788;DHT22;23627;53.302;-6.362;2023-06-22T00:48:38;18.10;99.90
37788;DHT22;23627;53.302;-6.362;2023-06-22T00:51:05;18.10;99.90
37788;DHT22;23627;53.302;-6.362;2023-06-22T00:53:31;18.10;99.90
37788;DHT22;23627;53.302;-6.362;2023-06-22T00:56:00;18.00;99.90
37788;DHT22;23627;53.302;-6.362;2023-06-22T00:58:28;18.00;99.90
37788;DHT22;23627;53.302;-6.362;2023-06-22T01:00:54;18.00;99.90
37788;DHT22;23627;53.302;-6.362;2023-06-22T01:03:20;17.90;99.90
37788;DHT22;23627;53.302;-6.362;2023-06-22T01:05:46;17.90;99.90
37788;DHT22;23627;53.302;-6.362;2023-06-22T01:08:37;17.90;99.90
37788;DHT22;23627;53.302;-6.362;2023-06-22T01:11:12;17.80;99.90
37788;DHT22;23627;53.302;-6.362;2023-06-22T01:16:24;17.80;99.90
37788;DHT22;23627;53.302;-6.362;2023-06-22T01:18:52;17.80;99.90
37788;DHT22;23627;53.302;-6.362;2023-06-22T01:21:22;17.70;99.90
37788;DHT22;23627;53.302;-6.362;2023-06-22T01:24:14;17.70;99.90
37788;DHT22;23627;53.302;-6.362;2023-06-22T01:29:50;17.60;99.90
37788;DHT22;23627;53.302;-6.362;2023-06-22T01:32:17;17.60;99.90
37788;DHT22;23627;53.302;-6.362;2023-06-22T01:34:43;17.60;99.90
37788;DHT22;23627;53.302;-6.362;2023-06-22T01:37:10;17.60;99.90
37788;DHT22;23627;53.302;-6.362;2023-06-22T01:39:36;17.50;99.90
37788;DHT22;23627;53.302;-6.362;2023-06-22T01:42:02;17.50;99.90
37788;DHT22;23627;53.302;-6.362;2023-06-22T01:44:29;17.50;99.90
37788;DHT22;23627;53.302;-6.362;2023-06-22T01:46:55;17.50;99.90
37788;DHT22;23627;53.302;-6.362;2023-06-22T01:49:21;17.40;99.90
37788;DHT22;23627;53.302;-6.362;2023-06-22T01:51:47;17.40;99.90
37788;DHT22;23627;53.302;-6.362;2023-06-22T01:54:13;17.40;99.90
37788;DHT22;23627;53.302;-6.362;2023-06-22T01:56:39;17.40;99.90
37788;DHT22;23627;53.302;-6.362;2023-06-22T02:02:01;17.40;99.90
37788;DHT22;23627;53.302;-6.362;2023-06-22T02:04:38;17.40;99.90
37788;DHT22;23627;53.302;-6.362;2023-06-22T02:07:12;17.30;99.90
37788;DHT22;23627;53.302;-6.362;2023-06-22T02:09:43;17.30;99.90
37788;DHT22;23627;53.302;-6.362;2023-06-22T02:12:11;17.30;99.90
37788;DHT22;23627;53.302;-6.362;2023-06-22T02:14:38;17.30;99.90
37788;DHT22;23627;53.302;-6.362;2023-06-22T02:17:05;17.30;99.90
37788;DHT22;23627;53.302;-6.362;2023-06-22T02:19:36;17.20;99.90
37788;DHT22;23627;53.302;-6.362;2023-06-22T02:22:03;17.20;99.90
37788;DHT22;23627;53.302;-6.362;2023-06-22T02:24:28;17.20;99.90
37788;DHT22;23627;53.302;-6.362;2023-06-22T02:26:58;17.20;99.90
37788;DHT22;23627;53.302;-6.362;2023-06-22T02:29:24;17.20;99.90
37788;DHT22;23627;53.302;-6.362;2023-06-22T02:31:49;17.20;99.90
37788;DHT22;23627;53.302;-6.362;2023-06-22T02:34:15;17.10;99.90
37788;DHT22;23627;53.302;-6.362;2023-06-22T02:36:49;17.10;99.90
37788;DHT22;23627;53.302;-6.362;2023-06-22T02:41:45;17.10;99.90
37788;DHT22;23627;53.302;-6.362;2023-06-22T02:44:11;17.10;99.90
37788;DHT22;23627;53.302;-6.362;2023-06-22T02:46:37;17.10;99.90
37788;DHT22;23627;53.302;-6.362;2023-06-22T02:49:02;17.10;99.90
37788;DHT22;23627;53.302;-6.362;2023-06-22T02:51:28;17.10;99.90
37788;DHT22;23627;53.302;-6.362;2023-06-22T02:53:54;17.10;99.90
37788;DHT22;23627;53.302;-6.362;2023-06-22T02:56:23;17.10;99.90
37788;DHT22;23627;53.302;-6.362;2023-06-22T02:58:51;17.10;99.90
37788;DHT22;23627;53.302;-6.362;2023-06-22T03:01:16;17.00;99.90
37788;DHT22;23627;53.302;-6.362;2023-06-22T03:03:42;17.00;99.90
37788;DHT22;23627;53.302;-6.362;2023-06-22T03:06:08;17.00;99.90
37788;DHT22;23627;53.302;-6.362;2023-06-22T03:08:39;16.90;99.90
37788;DHT22;23627;53.302;-6.362;2023-06-22T03:11:07;16.90;99.90
37788;DHT22;23627;53.302;-6.362;2023-06-22T03:13:33;16.90;99.90
37788;DHT22;23627;53.302;-6.362;2023-06-22T03:15:59;16.80;99.90
37788;DHT22;23627;53.302;-6.362;2023-06-22T03:18:24;16.80;99.90
37788;DHT22;23627;53.302;-6.362;2023-06-22T03:20:50;16.80;99.90
37788;DHT22;23627;53.302;-6.362;2023-06-22T03:23:16;16.70;99.90
37788;DHT22;23627;53.302;-6.362;2023-06-22T03:25:42;16.70;99.90
37788;DHT22;23627;53.302;-6.362;2023-06-22T03:28:10;16.70;99.90
37788;DHT22;23627;53.302;-6.362;2023-06-22T03:30:35;16.60;99.90
37788;DHT22;23627;53.302;-6.362;2023-06-22T03:33:01;16.60;99.90
37788;DHT22;23627;53.302;-6.362;2023-06-22T03:35:27;16.60;99.90
37788;DHT22;23627;53.302;-6.362;2023-06-22T03:37:53;16.50;99.90
37788;DHT22;23627;53.302;-6.362;2023-06-22T03:40:19;16.50;99.90
37788;DHT22;23627;53.302;-6.362;2023-06-22T03:42:46;16.50;99.90
37788;DHT22;23627;53.302;-6.362;2023-06-22T03:45:11;16.50;99.90
37788;DHT22;23627;53.302;-6.362;2023-06-22T03:47:37;16.40;99.90
37788;DHT22;23627;53.302;-6.362;2023-06-22T03:50:03;16.40;99.90
37788;DHT22;23627;53.302;-6.362;2023-06-22T03:52:29;16.40;99.90
37788;DHT22;23627;53.302;-6.362;2023-06-22T03:54:55;16.40;99.90
37788;DHT22;23627;53.302;-6.362;2023-06-22T03:57:21;16.30;99.90
37788;DHT22;23627;53.302;-6.362;2023-06-22T03:59:47;16.30;99.90
37788;DHT22;23627;53.302;-6.362;2023-06-22T04:02:13;16.30;99.90
37788;DHT22;23627;53.302;-6.362;2023-06-22T04:04:39;16.30;99.90
37788;DHT22;23627;53.302;-6.362;2023-06-22T04:07:05;16.30;99.90
37788;DHT22;23627;53.302;-6.362;2023-06-22T04:09:31;16.20;99.90
37788;DHT22;23627;53.302;-6.362;2023-06-22T04:11:57;16.20;99.90
37788;DHT22;23627;53.302;-6.362;2023-06-22T04:14:22;16.20;99.90
37788;DHT22;23627;53.302;-6.362;2023-06-22T04:16:48;16.20;99.90
37788;DHT22;23627;53.302;-6.362;2023-06-22T04:19:14;16.20;99.90
37788;DHT22;23627;53.302;-6.362;2023-06-22T04:21:43;16.10;99.90
37788;DHT22;23627;53.302;-6.362;2023-06-22T04:24:14;16.10;99.90
37788;DHT22;23627;53.302;-6.362;2023-06-22T04:26:40;16.10;99.90
37788;DHT22;23627;53.302;-6.362;2023-06-22T04:29:08;16.10;99.90
37788;DHT22;23627;53.302;-6.362;2023-06-22T04:31:36;16.10;99.90
37788;DHT22;23627;53.302;-6.362;2023-06-22T04:34:04;16.10;99.90
37788;DHT22;23627;53.302;-6.362;2023-06-22T04:36:40;16.10;99.90
37788;DHT22;23627;53.302;-6.362;2023-06-22T04:39:10;16.10;99.90
37788;DHT22;23627;53.302;-6.362;2023-06-22T04:41:38;16.10;99.90
37788;DHT22;23627;53.302;-6.362;2023-06-22T04:44:10;16.10;99.90
37788;DHT22;23627;53.302;-6.362;2023-06-22T04:46:36;16.10;99.90
37788;DHT22;23627;53.302;-6.362;2023-06-22T04:49:12;16.10;99.90
37788;DHT22;23627;53.302;-6.362;2023-06-22T04:51:42;16.10;99.90
37788;DHT22;23627;53.302;-6.362;2023-06-22T04:54:08;16.10;99.90
37788;DHT22;23627;53.302;-6.362;2023-06-22T04:56:34;16.10;99.90
37788;DHT22;23627;53.302;-6.362;2023-06-22T04:59:00;16.10;99.90
37788;DHT22;23627;53.302;-6.362;2023-06-22T05:01:26;16.10;99.90
37788;DHT22;23627;53.302;-6.362;2023-06-22T05:03:52;16.10;99.90
37788;DHT22;23627;53.302;-6.362;2023-06-22T05:06:23;16.10;99.90
37788;DHT22;23627;53.302;-6.362;2023-06-22T05:08:59;16.10;99.90
37788;DHT22;23627;53.302;-6.362;2023-06-22T05:11:28;16.20;99.90
37788;DHT22;23627;53.302;-6.362;2023-06-22T05:13:54;16.20;99.90
37788;DHT22;23627;53.302;-6.362;2023-06-22T05:16:20;16.20;99.90
37788;DHT22;23627;53.302;-6.362;2023-06-22T05:18:56;16.30;99.90
37788;DHT22;23627;53.302;-6.362;2023-06-22T05:21:23;16.30;99.90
37788;DHT22;23627;53.302;-6.362;2023-06-22T05:23:50;16.40;99.90
37788;DHT22;23627;53.302;-6.362;2023-06-22T05:26:20;16.40;99.90
37788;DHT22;23627;53.302;-6.362;2023-06-22T05:28:49;16.40;99.90
37788;DHT22;23627;53.302;-6.362;2023-06-22T05:31:16;16.50;99.90
37788;DHT22;23627;53.302;-6.362;2023-06-22T05:33:42;16.50;99.90
37788;DHT22;23627;53.302;-6.362;2023-06-22T05:36:08;16.60;99.90
37788;DHT22;23627;53.302;-6.362;2023-06-22T05:38:35;16.60;99.90
37788;DHT22;23627;53.302;-6.362;2023-06-22T05:41:01;16.60;99.90
37788;DHT22;23627;53.302;-6.362;2023-06-22T05:43:27;16.60;99.90
37788;DHT22;23627;53.302;-6.362;2023-06-22T05:45:53;16.60;99.90
37788;DHT22;23627;53.302;-6.362;2023-06-22T05:48:19;16.70;99.90
37788;DHT22;23627;53.302;-6.362;2023-06-22T05:50:45;16.70;99.90
37788;DHT22;23627;53.302;-6.362;2023-06-22T05:53:10;16.70;99.90
37788;DHT22;23627;53.302;-6.362;2023-06-22T05:55:36;16.70;99.90
37788;DHT22;23627;53.302;-6.362;2023-06-22T05:58:02;16.80;99.90
37788;DHT22;23627;53.302;-6.362;2023-06-22T06:00:31;16.80;99.90
37788;DHT22;23627;53.302;-6.362;2023-06-22T06:02:57;16.80;99.90
37788;DHT22;23627;53.302;-6.362;2023-06-22T06:05:22;16.90;99.90
37788;DHT22;23627;53.302;-6.362;2023-06-22T06:07:50;16.90;99.90
37788;DHT22;23627;53.302;-6.362;2023-06-22T06:10:16;16.90;99.90
37788;DHT22;23627;53.302;-6.362;2023-06-22T06:12:42;16.90;99.90
37788;DHT22;23627;53.302;-6.362;2023-06-22T06:15:08;16.90;99.90
37788;DHT22;23627;53.302;-6.362;2023-06-22T06:17:34;16.90;99.90
37788;DHT22;23627;53.302;-6.362;2023-06-22T06:20:00;17.00;99.90
37788;DHT22;23627;53.302;-6.362;2023-06-22T06:22:26;17.00;99.90
37788;DHT22;23627;53.302;-6.362;2023-06-22T06:24:52;17.10;99.90
37788;DHT22;23627;53.302;-6.362;2023-06-22T06:27:17;17.00;99.90
37788;DHT22;23627;53.302;-6.362;2023-06-22T06:29:44;17.10;99.90
37788;DHT22;23627;53.302;-6.362;2023-06-22T06:32:13;17.10;99.90
37788;DHT22;23627;53.302;-6.362;2023-06-22T06:34:39;17.20;99.90
37788;DHT22;23627;53.302;-6.362;2023-06-22T06:37:05;17.20;99.90
37788;DHT22;23627;53.302;-6.362;2023-06-22T06:39:31;17.20;99.90
37788;DHT22;23627;53.302;-6.362;2023-06-22T06:41:57;17.20;99.90
37788;DHT22;23627;53.302;-6.362;2023-06-22T06:44:22;17.20;99.90
37788;DHT22;23627;53.302;-6.362;2023-06-22T06:46:48;17.30;99.90
37788;DHT22;23627;53.302;-6.362;2023-06-22T06:49:14;17.30;99.90
37788;DHT22;23627;53.302;-6.362;2023-06-22T06:51:40;17.30;99.90
37788;DHT22;23627;53.302;-6.362;2023-06-22T06:54:05;17.30;99.90
37788;DHT22;23627;53.302;-6.362;2023-06-22T06:56:31;17.40;99.90
37788;DHT22;23627;53.302;-6.362;2023-06-22T06:58:58;17.50;99.90
37788;DHT22;23627;53.302;-6.362;2023-06-22T07:01:24;17.50;99.90
37788;DHT22;23627;53.302;-6.362;2023-06-22T07:03:50;17.60;99.90
37788;DHT22;23627;53.302;-6.362;2023-06-22T07:06:16;17.70;99.90
37788;DHT22;23627;53.302;-6.362;2023-06-22T07:08:42;17.90;99.90
37788;DHT22;23627;53.302;-6.362;2023-06-22T07:11:08;18.30;99.90
37788;DHT22;23627;53.302;-6.362;2023-06-22T07:13:34;18.70;99.90
37788;DHT22;23627;53.302;-6.362;2023-06-22T07:16:00;19.10;99.90
37788;DHT22;23627;53.302;-6.362;2023-06-22T07:18:25;19.50;99.90
37788;DHT22;23627;53.302;-6.362;2023-06-22T07:20:52;19.90;99.90
37788;DHT22;23627;53.302;-6.362;2023-06-22T07:23:18;20.30;99.90
37788;DHT22;23627;53.302;-6.362;2023-06-22T07:25:43;20.70;99.90
37788;DHT22;23627;53.302;-6.362;2023-06-22T07:28:09;21.10;99.90
37788;DHT22;23627;53.302;-6.362;2023-06-22T07:30:35;21.40;99.90
37788;DHT22;23627;53.302;-6.362;2023-06-22T07:33:01;21.80;99.90
37788;DHT22;23627;53.302;-6.362;2023-06-22T07:35:33;22.10;99.90
37788;DHT22;23627;53.302;-6.362;2023-06-22T07:38:02;22.40;99.90
37788;DHT22;23627;53.302;-6.362;2023-06-22T07:40:29;22.60;99.90
37788;DHT22;23627;53.302;-6.362;2023-06-22T07:42:54;22.80;99.90
37788;DHT22;23627;53.302;-6.362;2023-06-22T07:45:25;23.00;99.90
37788;DHT22;23627;53.302;-6.362;2023-06-22T07:47:51;23.30;99.90
37788;DHT22;23627;53.302;-6.362;2023-06-22T07:50:16;23.40;99.90
37788;DHT22;23627;53.302;-6.362;2023-06-22T07:52:42;23.70;99.90
37788;DHT22;23627;53.302;-6.362;2023-06-22T07:55:14;23.90;99.90
37788;DHT22;23627;53.302;-6.362;2023-06-22T07:57:40;24.00;99.90
37788;DHT22;23627;53.302;-6.362;2023-06-22T08:00:07;24.20;99.90
37788;DHT22;23627;53.302;-6.362;2023-06-22T08:02:39;24.40;99.90
37788;DHT22;23627;53.302;-6.362;2023-06-22T08:05:06;24.50;99.90
37788;DHT22;23627;53.302;-6.362;2023-06-22T08:07:34;24.70;99.90
37788;DHT22;23627;53.302;-6.362;2023-06-22T08:10:00;24.80;99.90
37788;DHT22;23627;53.302;-6.362;2023-06-22T08:12:26;25.00;99.90
37788;DHT22;23627;53.302;-6.362;2023-06-22T08:14:52;25.10;99.90
37788;DHT22;23627;53.302;-6.362;2023-06-22T08:17:18;25.20;99.90
37788;DHT22;23627;53.302;-6.362;2023-06-22T08:19:43;25.30;99.90
37788;DHT22;23627;53.302;-6.362;2023-06-22T08:22:09;25.50;99.90
37788;DHT22;23627;53.302;-6.362;2023-06-22T08:24:38;25.60;99.90
37788;DHT22;23627;53.302;-6.362;2023-06-22T08:27:07;25.70;99.90
37788;DHT22;23627;53.302;-6.362;2023-06-22T08:29:34;25.80;99.90
37788;DHT22;23627;53.302;-6.362;2023-06-22T08:32:00;25.90;99.90
37788;DHT22;23627;53.302;-6.362;2023-06-22T08:34:25;26.00;99.90
37788;DHT22;23627;53.302;-6.362;2023-06-22T08:36:53;26.10;99.90
37788;DHT22;23627;53.302;-6.362;2023-06-22T08:39:19;26.20;99.90
37788;DHT22;23627;53.302;-6.362;2023-06-22T08:41:49;26.30;99.90
37788;DHT22;23627;53.302;-6.362;2023-06-22T08:44:18;26.40;99.90
37788;DHT22;23627;53.302;-6.362;2023-06-22T08:46:44;26.50;99.90
37788;DHT22;23627;53.302;-6.362;2023-06-22T08:49:09;26.60;99.90
37788;DHT22;23627;53.302;-6.362;2023-06-22T08:51:35;26.60;99.90
37788;DHT22;23627;53.302;-6.362;2023-06-22T08:54:01;26.80;99.90
37788;DHT22;23627;53.302;-6.362;2023-06-22T08:56:27;26.80;99.90
37788;DHT22;23627;53.302;-6.362;2023-06-22T08:58:53;26.90;99.90
37788;DHT22;23627;53.302;-6.362;2023-06-22T09:01:20;26.90;99.90
37788;DHT22;23627;53.302;-6.362;2023-06-22T09:03:46;27.00;99.90
37788;DHT22;23627;53.302;-6.362;2023-06-22T09:06:20;27.10;99.90
37788;DHT22;23627;53.302;-6.362;2023-06-22T09:08:47;27.20;99.90
37788;DHT22;23627;53.302;-6.362;2023-06-22T09:11:13;27.20;99.90
37788;DHT22;23627;53.302;-6.362;2023-06-22T09:13:39;27.30;99.90
37788;DHT22;23627;53.302;-6.362;2023-06-22T09:16:05;27.30;99.90
37788;DHT22;23627;53.302;-6.362;2023-06-22T09:18:31;27.30;99.90
37788;DHT22;23627;53.302;-6.362;2023-06-22T09:20:56;27.40;99.90
37788;DHT22;23627;53.302;-6.362;2023-06-22T09:23:22;27.40;99.90
37788;DHT22;23627;53.302;-6.362;2023-06-22T09:25:48;27.50;99.90
37788;DHT22;23627;53.302;-6.362;2023-06-22T09:28:16;27.60;99.90
37788;DHT22;23627;53.302;-6.362;2023-06-22T09:30:45;27.60;99.90
37788;DHT22;23627;53.302;-6.362;2023-06-22T09:33:11;27.60;99.90
37788;DHT22;23627;53.302;-6.362;2023-06-22T09:35:37;27.70;99.90
37788;DHT22;23627;53.302;-6.362;2023-06-22T09:38:03;27.70;99.90
37788;DHT22;23627;53.302;-6.362;2023-06-22T09:40:28;27.70;99.90
37788;DHT22;23627;53.302;-6.362;2023-06-22T09:42:54;27.70;99.90
37788;DHT22;23627;53.302;-6.362;2023-06-22T09:45:20;27.70;99.90
37788;DHT22;23627;53.302;-6.362;2023-06-22T09:47:45;27.70;99.90
37788;DHT22;23627;53.302;-6.362;2023-06-22T09:50:12;27.70;99.90
37788;DHT22;23627;53.302;-6.362;2023-06-22T09:52:38;27.60;99.90
37788;DHT22;23627;53.302;-6.362;2023-06-22T09:55:04;27.60;99.90
37788;DHT22;23627;53.302;-6.362;2023-06-22T09:57:30;27.60;99.90
37788;DHT22;23627;53.302;-6.362;2023-06-22T09:59:55;27.60;99.90
37788;DHT22;23627;53.302;-6.362;2023-06-22T10:02:21;27.50;99.90
37788;DHT22;23627;53.302;-6.362;2023-06-22T10:04:48;27.50;99.90
37788;DHT22;23627;53.302;-6.362;2023-06-22T10:07:14;27.40;99.90
37788;DHT22;23627;53.302;-6.362;2023-06-22T10:09:39;27.40;99.90
37788;DHT22;23627;53.302;-6.362;2023-06-22T10:12:05;27.30;99.90
37788;DHT22;23627;53.302;-6.362;2023-06-22T10:14:31;27.30;99.90
37788;DHT22;23627;53.302;-6.362;2023-06-22T10:16:57;27.30;99.90
37788;DHT22;23627;53.302;-6.362;2023-06-22T10:19:23;27.20;99.90
37788;DHT22;23627;53.302;-6.362;2023-06-22T10:21:49;27.20;99.90
37788;DHT22;23627;53.302;-6.362;2023-06-22T10:24:14;27.10;99.90
37788;DHT22;23627;53.302;-6.362;2023-06-22T10:26:40;27.10;99.90
37788;DHT22;23627;53.302;-6.362;2023-06-22T10:29:06;27.00;99.90
37788;DHT22;23627;53.302;-6.362;2023-06-22T10:31:31;27.00;99.90
37788;DHT22;23627;53.302;-6.362;2023-06-22T10:33:57;26.90;99.90
37788;DHT22;23627;53.302;-6.362;2023-06-22T10:36:23;26.90;99.90
37788;DHT22;23627;53.302;-6.362;2023-06-22T10:38:49;26.80;99.90
37788;DHT22;23627;53.302;-6.362;2023-06-22T10:41:15;26.80;99.90
37788;DHT22;23627;53.302;-6.362;2023-06-22T10:43:41;26.80;99.90
37788;DHT22;23627;53.302;-6.362;2023-06-22T10:46:07;26.80;99.90
37788;DHT22;23627;53.302;-6.362;2023-06-22T10:48:33;26.80;99.90
37788;DHT22;23627;53.302;-6.362;2023-06-22T10:50:59;26.70;99.90
37788;DHT22;23627;53.302;-6.362;2023-06-22T10:53:24;26.70;99.90
37788;DHT22;23627;53.302;-6.362;2023-06-22T10:55:50;26.70;99.90
37788;DHT22;23627;53.302;-6.362;2023-06-22T10:58:18;26.70;99.90
37788;DHT22;23627;53.302;-6.362;2023-06-22T11:00:44;26.70;99.90
37788;DHT22;23627;53.302;-6.362;2023-06-22T11:03:10;26.70;99.90
37788;DHT22;23627;53.302;-6.362;2023-06-22T11:05:36;26.80;99.90
37788;DHT22;23627;53.302;-6.362;2023-06-22T11:08:02;26.70;99.90
37788;DHT22;23627;53.302;-6.362;2023-06-22T11:10:28;26.70;99.90
37788;DHT22;23627;53.302;-6.362;2023-06-22T11:12:53;26.80;99.90
37788;DHT22;23627;53.302;-6.362;2023-06-22T11:15:20;26.80;99.90
37788;DHT22;23627;53.302;-6.362;2023-06-22T11:17:46;26.80;99.90
37788;DHT22;23627;53.302;-6.362;2023-06-22T11:20:12;26.70;99.90
37788;DHT22;23627;53.302;-6.362;2023-06-22T11:22:41;26.70;99.90
37788;DHT22;23627;53.302;-6.362;2023-06-22T11:25:08;26.70;99.90
37788;DHT22;23627;53.302;-6.362;2023-06-22T11:27:34;26.70;99.90
37788;DHT22;23627;53.302;-6.362;2023-06-22T11:30:00;26.70;99.90
37788;DHT22;23627;53.302;-6.362;2023-06-22T11:32:26;26.70;99.90
37788;DHT22;23627;53.302;-6.362;2023-06-22T11:34:51;26.70;99.90
37788;DHT22;23627;53.302;-6.362;2023-06-22T11:37:17;26.70;99.90
37788;DHT22;23627;53.302;-6.362;2023-06-22T11:39:43;26.70;99.90
37788;DHT22;23627;53.302;-6.362;2023-06-22T11:42:09;26.70;99.90
37788;DHT22;23627;53.302;-6.362;2023-06-22T11:44:35;26.70;99.90
37788;DHT22;23627;53.302;-6.362;2023-06-22T11:47:01;26.70;99.90
37788;DHT22;23627;53.302;-6.362;2023-06-22T11:49:32;26.70;99.90
37788;DHT22;23627;53.302;-6.362;2023-06-22T11:51:58;26.70;99.90
37788;DHT22;23627;53.302;-6.362;2023-06-22T11:54:24;26.80;99.90
37788;DHT22;23627;53.302;-6.362;2023-06-22T11:56:50;26.80;99.90
37788;DHT22;23627;53.302;-6.362;2023-06-22T11:59:15;26.80;99.90
37788;DHT22;23627;53.302;-6.362;2023-06-22T12:01:41;26.80;99.90
37788;DHT22;23627;53.302;-6.362;2023-06-22T12:04:07;26.80;99.90
37788;DHT22;23627;53.302;-6.362;2023-06-22T12:06:33;26.80;99.90
37788;DHT22;23627;53.302;-6.362;2023-06-22T12:09:02;26.90;99.90
37788;DHT22;23627;53.302;-6.362;2023-06-22T12:11:30;26.90;99.90
37788;DHT22;23627;53.302;-6.362;2023-06-22T12:13:55;26.90;99.90
37788;DHT22;23627;53.302;-6.362;2023-06-22T12:16:21;26.90;99.90
37788;DHT22;23627;53.302;-6.362;2023-06-22T12:18:47;26.90;99.90
37788;DHT22;23627;53.302;-6.362;2023-06-22T12:21:13;26.90;99.90
37788;DHT22;23627;53.302;-6.362;2023-06-22T12:23:39;26.90;99.90
37788;DHT22;23627;53.302;-6.362;2023-06-22T12:26:05;26.90;99.90
37788;DHT22;23627;53.302;-6.362;2023-06-22T12:28:31;26.90;99.90
37788;DHT22;23627;53.302;-6.362;2023-06-22T12:30:56;26.90;99.90
37788;DHT22;23627;53.302;-6.362;2023-06-22T12:33:22;26.90;99.90
37788;DHT22;23627;53.302;-6.362;2023-06-22T12:35:48;27.00;99.90
37788;DHT22;23627;53.302;-6.362;2023-06-22T12:38:14;27.00;99.90
37788;DHT22;23627;53.302;-6.362;2023-06-22T12:40:40;27.00;99.90
37788;DHT22;23627;53.302;-6.362;2023-06-22T12:43:06;27.00;99.90
37788;DHT22;23627;53.302;-6.362;2023-06-22T12:45:33;27.00;99.90
37788;DHT22;23627;53.302;-6.362;2023-06-22T12:48:00;27.00;99.90
37788;DHT22;23627;53.302;-6.362;2023-06-22T12:50:26;27.00;99.90
37788;DHT22;23627;53.302;-6.362;2023-06-22T12:52:52;27.00;99.90
37788;DHT22;23627;53.302;-6.362;2023-06-22T12:55:17;27.10;99.90
37788;DHT22;23627;53.302;-6.362;2023-06-22T12:57:43;27.10;99.90
37788;DHT22;23627;53.302;-6.362;2023-06-22T13:00:09;27.10;99.90
37788;DHT22;23627;53.302;-6.362;2023-06-22T13:02:36;27.10;99.90
37788;DHT22;23627;53.302;-6.362;2023-06-22T13:05:02;27.20;99.90
37788;DHT22;23627;53.302;-6.362;2023-06-22T13:07:30;27.10;99.90
37788;DHT22;23627;53.302;-6.362;2023-06-22T13:09:56;27.20;99.90
37788;DHT22;23627;53.302;-6.362;2023-06-22T13:12:22;27.20;99.90
37788;DHT22;23627;53.302;-6.362;2023-06-22T13:14:48;27.10;99.90
37788;DHT22;23627;53.302;-6.362;2023-06-22T13:17:14;27.10;99.90
37788;DHT22;23627;53.302;-6.362;2023-06-22T13:19:40;27.10;99.90
37788;DHT22;23627;53.302;-6.362;2023-06-22T13:22:09;27.20;99.90
37788;DHT22;23627;53.302;-6.362;2023-06-22T13:24:50;27.20;99.90
37788;DHT22;23627;53.302;-6.362;2023-06-22T13:27:16;27.20;99.90
37788;DHT22;23627;53.302;-6.362;2023-06-22T13:29:42;27.20;99.90
37788;DHT22;23627;53.302;-6.362;2023-06-22T13:32:08;27.10;99.90
37788;DHT22;23627;53.302;-6.362;2023-06-22T13:34:33;27.20;99.90
37788;DHT22;23627;53.302;-6.362;2023-06-22T13:36:59;27.20;99.90
37788;DHT22;23627;53.302;-6.362;2023-06-22T13:39:25;27.10;99.90
37788;DHT22;23627;53.302;-6.362;2023-06-22T13:41:50;26.90;99.90
37788;DHT22;23627;53.302;-6.362;2023-06-22T13:44:16;26.80;99.90
37788;DHT22;23627;53.302;-6.362;2023-06-22T13:46:42;26.70;99.90
37788;DHT22;23627;53.302;-6.362;2023-06-22T13:49:08;26.70;99.90
37788;DHT22;23627;53.302;-6.362;2023-06-22T13:51:33;26.60;99.90
37788;DHT22;23627;53.302;-6.362;2023-06-22T13:53:59;26.50;99.90
37788;DHT22;23627;53.302;-6.362;2023-06-22T13:56:25;26.50;99.90
37788;DHT22;23627;53.302;-6.362;2023-06-22T13:58:51;26.50;99.90
37788;DHT22;23627;53.302;-6.362;2023-06-22T14:01:16;26.50;99.90
37788;DHT22;23627;53.302;-6.362;2023-06-22T14:03:42;26.40;99.90
37788;DHT22;23627;53.302;-6.362;2023-06-22T14:06:11;26.30;99.90
37788;DHT22;23627;53.302;-6.362;2023-06-22T14:08:37;26.20;99.90
37788;DHT22;23627;53.302;-6.362;2023-06-22T14:11:03;26.30;99.90
37788;DHT22;23627;53.302;-6.362;2023-06-22T14:13:29;26.50;99.90
37788;DHT22;23627;53.302;-6.362;2023-06-22T14:15:54;26.70;99.90
37788;DHT22;23627;53.302;-6.362;2023-06-22T14:18:20;26.70;99.90
37788;DHT22;23627;53.302;-6.362;2023-06-22T14:20:48;26.60;99.90
37788;DHT22;23627;53.302;-6.362;2023-06-22T14:23:14;26.70;99.90
37788;DHT22;23627;53.302;-6.362;2023-06-22T14:25:40;26.60;99.90
37788;DHT22;23627;53.302;-6.362;2023-06-22T14:28:06;26.60;99.90
37788;DHT22;23627;53.302;-6.362;2023-06-22T14:30:31;26.60;99.90
37788;DHT22;23627;53.302;-6.362;2023-06-22T14:32:57;26.60;99.90
37788;DHT22;23627;53.302;-6.362;2023-06-22T14:35:23;26.40;99.90
37788;DHT22;23627;53.302;-6.362;2023-06-22T14:37:50;26.40;99.90
37788;DHT22;23627;53.302;-6.362;2023-06-22T14:40:15;26.30;99.90
37788;DHT22;23627;53.302;-6.362;2023-06-22T14:42:41;26.20;99.90
37788;DHT22;23627;53.302;-6.362;2023-06-22T14:45:07;26.20;99.90
37788;DHT22;23627;53.302;-6.362;2023-06-22T14:47:33;26.20;99.90
37788;DHT22;23627;53.302;-6.362;2023-06-22T14:49:59;26.20;99.90
37788;DHT22;23627;53.302;-6.362;2023-06-22T14:52:26;26.20;99.90
37788;DHT22;23627;53.302;-6.362;2023-06-22T14:54:52;26.20;99.90
37788;DHT22;23627;53.302;-6.362;2023-06-22T14:57:19;26.10;99.90
37788;DHT22;23627;53.302;-6.362;2023-06-22T14:59:46;26.10;99.90
37788;DHT22;23627;53.302;-6.362;2023-06-22T15:02:13;26.10;99.90
37788;DHT22;23627;53.302;-6.362;2023-06-22T15:04:38;26.30;99.90
37788;DHT22;23627;53.302;-6.362;2023-06-22T15:07:05;26.30;99.90
37788;DHT22;23627;53.302;-6.362;2023-06-22T15:09:30;26.20;99.90
37788;DHT22;23627;53.302;-6.362;2023-06-22T15:11:56;26.20;99.90
37788;DHT22;23627;53.302;-6.362;2023-06-22T15:14:23;26.10;99.90
37788;DHT22;23627;53.302;-6.362;2023-06-22T15:16:49;26.00;99.90
37788;DHT22;23627;53.302;-6.362;2023-06-22T15:19:15;25.90;99.90
37788;DHT22;23627;53.302;-6.362;2023-06-22T15:21:41;25.90;99.90
37788;DHT22;23627;53.302;-6.362;2023-06-22T15:24:07;25.80;99.90